map of EVM home
EVM - Airport
Location
City:  Eveleth, Minnesota, United States
Name:Eveleth-Virginia Municipal Airport
ICAO:KEVM
IATA:EVM
FAA LID:EVM

Details
Type:Airport (Airfield)
Use:Public/Civil
Latitude:4725'27"N (47.424167)
Longitude:9229'48"W (-92.496555)
Datum:WGS 1984
Elevation:1376 ft (419 m)
Variation:0.81W (WMM2015 magnetic declination)
-0.06 annual change
Runways:2
Longest:4000 × 75 ft (1219 × 23 m), paved

Time
Time Zone:UTC-6 (DST-5)
Local Time:

Weather
METAR:KEVM 162135Z AUTO 30009KT 10SM UP BKN023 OVC029 M06/M09 A3002 RMK AO2 T10651095

Related Locations
Nearby:
Farthest:YWKS: 10843 mi / 17450 km
Wilkins Runway (Casey), Upper Peterson Glacier, AQ

Find:

   beyond  
but within

Other Information
Maps:
NOTAMs:
Links:
Sources:

  
  • flag of United States
  • flag of Minnesota
  

Sectional Chart

Flight Planning
at skyvector.com

Satellite Image

Google Maps Satellite view

 

Copyright © 2004-2018 Karl L. Swartz. All rights reserved.
The Great Circle Mapper name and logo are trademarks of the Great Circle Mapper.
All other trademarks mentioned herein belong to their respective owners.
Please see credits for attibutions and further copyright information.

  Follow gcmap on Facebook Follow gcmap on Twitter Follow gcmap on Google+ GCmap on LinkedIn

hCard Microformat

Geo Microformat